createdAt,value
2023-03-20T00:01:21.666Z,23.20
2023-03-20T00:03:50.431Z,21.27
2023-03-20T00:06:21.679Z,21.20
2023-03-20T00:08:50.482Z,16.57
2023-03-20T00:11:36.430Z,18.35
2023-03-20T00:14:11.271Z,19.65
2023-03-20T00:16:40.543Z,19.47
2023-03-20T00:19:23.335Z,16.15
2023-03-20T00:21:51.491Z,17.48
2023-03-20T00:24:18.167Z,16.98
2023-03-20T00:26:46.338Z,16.90
2023-03-20T00:29:22.661Z,16.70
2023-03-20T00:31:49.917Z,17.27
2023-03-20T00:34:19.274Z,16.52
2023-03-20T00:36:46.424Z,16.45
2023-03-20T00:39:13.817Z,19.65
2023-03-20T00:42:08.117Z,15.38
2023-03-20T00:44:48.543Z,14.88
2023-03-20T00:47:21.306Z,15.30
2023-03-20T00:49:50.204Z,10.95
2023-03-20T00:52:18.668Z,15.10
2023-03-20T00:54:46.844Z,11.20
2023-03-20T00:57:20.691Z,14.25
2023-03-20T01:00:05.275Z,11.43
2023-03-20T01:02:33.143Z,13.20
2023-03-20T01:05:00.561Z,11.70
2023-03-20T01:07:27.777Z,11.83
2023-03-20T01:09:54.253Z,13.17
2023-03-20T01:12:21.329Z,14.68
2023-03-20T01:14:52.245Z,11.57
2023-03-20T01:17:21.039Z,11.73
2023-03-20T01:19:47.959Z,11.88
2023-03-20T01:22:14.840Z,11.80
2023-03-20T01:24:42.085Z,16.05
2023-03-20T01:27:14.717Z,11.70
2023-03-20T01:29:42.132Z,11.43
2023-03-20T01:32:13.869Z,11.32
2023-03-20T01:34:40.722Z,12.77
2023-03-20T01:37:13.422Z,11.03
2023-03-20T01:39:40.233Z,13.18
2023-03-20T01:42:07.302Z,12.90
2023-03-20T01:44:36.011Z,12.00
2023-03-20T01:47:06.378Z,10.98
2023-03-20T01:50:10.778Z,12.10
2023-03-20T01:52:37.350Z,9.38
2023-03-20T01:55:04.225Z,11.07
2023-03-20T01:57:30.952Z,10.38
2023-03-20T02:00:11.903Z,10.10
2023-03-20T02:02:39.737Z,10.15
2023-03-20T02:05:10.564Z,11.52
2023-03-20T02:07:38.301Z,10.57
2023-03-20T02:10:13.705Z,10.40
2023-03-20T02:12:41.360Z,9.65
2023-03-20T02:15:09.928Z,11.15
2023-03-20T02:17:36.497Z,11.60
2023-03-20T02:20:06.054Z,10.23
2023-03-20T02:22:54.802Z,11.77
2023-03-20T02:25:44.229Z,11.38
2023-03-20T02:28:37.801Z,11.97
2023-03-20T02:31:28.679Z,10.90
2023-03-20T02:34:27.440Z,11.95
2023-03-20T02:37:24.654Z,10.10
2023-03-20T02:39:54.116Z,10.80
2023-03-20T02:42:33.274Z,9.23
2023-03-20T02:45:22.194Z,9.85
2023-03-20T02:47:54.721Z,11.65
2023-03-20T02:50:32.168Z,9.07
2023-03-20T02:53:18.798Z,9.90
2023-03-20T02:55:55.789Z,9.63
2023-03-20T02:58:30.972Z,11.63
2023-03-20T03:00:58.107Z,11.48
2023-03-20T03:03:32.184Z,11.27
2023-03-20T03:06:02.022Z,10.50
2023-03-20T03:08:32.407Z,11.73
2023-03-20T03:11:03.423Z,11.30
2023-03-20T03:13:32.644Z,11.48
2023-03-20T03:16:07.298Z,10.37
2023-03-20T03:18:35.968Z,10.13
2023-03-20T03:21:04.164Z,10.50
2023-03-20T03:23:39.196Z,10.52
2023-03-20T03:26:08.088Z,9.97
2023-03-20T03:28:43.695Z,12.90
2023-03-20T03:31:13.718Z,10.30
2023-03-20T03:33:41.508Z,14.00
2023-03-20T03:36:46.524Z,11.50
2023-03-20T03:39:52.409Z,12.00
2023-03-20T03:42:33.700Z,12.20
2023-03-20T03:45:07.588Z,9.97
2023-03-20T03:47:55.860Z,9.57
2023-03-20T03:50:31.584Z,11.60
2023-03-20T03:53:01.460Z,11.83
2023-03-20T03:55:32.401Z,10.47
2023-03-20T03:58:02.103Z,10.37
2023-03-20T04:00:28.765Z,9.57
2023-03-20T04:02:57.668Z,10.17
2023-03-20T04:05:25.603Z,10.67
2023-03-20T04:07:56.885Z,9.90
2023-03-20T04:10:23.436Z,9.90
2023-03-20T04:12:49.958Z,10.03
2023-03-20T04:15:16.984Z,8.50
2023-03-20T04:17:44.417Z,12.03
2023-03-20T04:20:12.508Z,10.40
2023-03-20T04:22:39.623Z,8.90
2023-03-20T04:25:07.910Z,7.93
2023-03-20T04:27:34.480Z,9.27
2023-03-20T04:30:00.917Z,7.80
2023-03-20T04:32:27.407Z,9.40
2023-03-20T04:34:53.864Z,9.30
2023-03-20T04:37:20.416Z,11.67
2023-03-20T04:39:47.669Z,8.97
2023-03-20T04:42:14.202Z,9.70
2023-03-20T04:44:40.758Z,8.80
2023-03-20T04:47:07.208Z,9.33
2023-03-20T04:49:33.801Z,8.80
2023-03-20T04:52:00.369Z,7.70
2023-03-20T04:54:26.885Z,6.97
2023-03-20T04:56:53.367Z,7.63
2023-03-20T04:59:19.839Z,9.40
2023-03-20T05:01:46.342Z,7.37
2023-03-20T05:04:13.305Z,7.43
2023-03-20T05:06:40.156Z,7.38
2023-03-20T05:09:06.732Z,6.30
2023-03-20T05:11:33.339Z,9.87
2023-03-20T05:13:59.892Z,7.40
2023-03-20T05:16:26.647Z,7.47
2023-03-20T05:18:53.229Z,9.27
2023-03-20T05:21:19.861Z,6.93
2023-03-20T05:23:46.576Z,9.93
2023-03-20T05:26:13.038Z,110.47
2023-03-20T05:28:39.567Z,36.42
2023-03-20T05:31:06.473Z,67.23
2023-03-20T05:33:33.161Z,23.83
2023-03-20T05:35:59.836Z,13.33
2023-03-20T05:38:27.192Z,9.47
2023-03-20T05:40:58.818Z,7.63
2023-03-20T05:43:25.896Z,6.67
2023-03-20T05:45:53.110Z,5.95
2023-03-20T05:48:19.838Z,7.67
2023-03-20T05:50:46.350Z,5.33
2023-03-20T05:53:12.924Z,8.73
2023-03-20T05:55:39.608Z,6.50
2023-03-20T05:58:06.264Z,10.90
2023-03-20T06:00:33.009Z,6.03
2023-03-20T06:02:59.523Z,6.55
2023-03-20T06:05:26.051Z,7.28
2023-03-20T06:07:52.580Z,6.40
2023-03-20T06:10:20.744Z,5.43
2023-03-20T06:12:48.460Z,5.50
2023-03-20T06:15:15.013Z,8.02
2023-03-20T06:17:42.224Z,5.60
2023-03-20T06:20:09.997Z,6.00
2023-03-20T06:22:36.826Z,7.38
2023-03-20T06:25:03.432Z,8.15
2023-03-20T06:27:31.107Z,5.85
2023-03-20T06:29:57.963Z,7.72
2023-03-20T06:32:24.543Z,8.20
2023-03-20T06:34:51.074Z,7.47
2023-03-20T06:37:19.416Z,5.63
2023-03-20T06:39:46.027Z,5.13
2023-03-20T06:42:15.066Z,7.38
2023-03-20T06:44:42.674Z,5.40
2023-03-20T06:47:09.555Z,7.65
2023-03-20T06:49:36.173Z,4.43
2023-03-20T06:52:02.997Z,4.50
2023-03-20T06:54:29.718Z,7.78
2023-03-20T06:56:56.287Z,7.28
2023-03-20T06:59:23.763Z,5.53
2023-03-20T07:01:50.694Z,7.15
2023-03-20T07:04:17.355Z,5.95
2023-03-20T07:06:43.905Z,6.63
2023-03-20T07:09:10.498Z,5.90
2023-03-20T07:11:37.014Z,6.05
2023-03-20T07:14:03.646Z,7.40
2023-03-20T07:16:30.160Z,6.55
2023-03-20T07:18:56.603Z,3.90
2023-03-20T07:21:23.222Z,3.92
2023-03-20T07:23:49.819Z,5.20
2023-03-20T07:26:16.961Z,6.30
2023-03-20T07:28:43.514Z,5.93
2023-03-20T07:31:19.206Z,4.38
2023-03-20T07:33:45.868Z,6.63
2023-03-20T07:36:12.595Z,6.50
2023-03-20T07:38:39.081Z,4.82
2023-03-20T07:41:06.020Z,6.30
2023-03-20T07:43:32.648Z,6.88
2023-03-20T07:46:02.471Z,5.35
2023-03-20T07:48:29.207Z,5.88
2023-03-20T07:50:55.789Z,7.95
2023-03-20T07:53:22.483Z,4.85
2023-03-20T07:55:49.052Z,5.68
2023-03-20T07:58:16.861Z,5.47
2023-03-20T08:00:44.013Z,5.38
2023-03-20T08:03:11.062Z,5.95
2023-03-20T08:05:38.134Z,5.80
2023-03-20T08:08:05.715Z,6.72
2023-03-20T08:10:32.711Z,6.72
2023-03-20T08:12:59.202Z,6.50
2023-03-20T08:15:25.896Z,6.72
2023-03-20T08:17:52.576Z,6.10
2023-03-20T08:20:19.937Z,6.43
2023-03-20T08:22:47.142Z,5.97
2023-03-20T08:25:13.953Z,8.68
2023-03-20T08:27:40.559Z,5.88
2023-03-20T08:30:09.002Z,9.05
2023-03-20T08:32:36.510Z,9.95
2023-03-20T08:35:03.457Z,8.90
2023-03-20T08:37:29.877Z,8.40
2023-03-20T08:39:56.960Z,9.48
2023-03-20T08:42:23.798Z,9.27
2023-03-20T08:44:50.563Z,9.65
2023-03-20T08:47:17.206Z,12.00
2023-03-20T08:49:44.105Z,8.55
2023-03-20T08:52:10.803Z,8.73
2023-03-20T08:54:37.349Z,10.50
2023-03-20T08:57:04.369Z,11.73
2023-03-20T08:59:31.385Z,11.90
2023-03-20T09:01:58.573Z,11.77
2023-03-20T09:04:25.719Z,13.57
2023-03-20T09:06:52.960Z,13.77
2023-03-20T09:09:21.534Z,14.25
2023-03-20T09:11:48.110Z,13.43
2023-03-20T09:14:15.163Z,16.08
2023-03-20T09:16:41.668Z,20.42
2023-03-20T09:19:08.379Z,23.58
2023-03-20T09:21:35.048Z,25.85
2023-03-20T09:24:01.681Z,27.52
2023-03-20T09:26:28.265Z,26.92
2023-03-20T09:28:54.845Z,22.73
2023-03-20T09:31:23.089Z,24.38
2023-03-20T09:33:50.392Z,24.58
2023-03-20T09:36:17.048Z,23.52
2023-03-20T09:38:43.642Z,24.13
2023-03-20T09:41:28.313Z,22.40
2023-03-20T09:44:08.448Z,24.58
2023-03-20T09:46:56.846Z,23.00
2023-03-20T09:49:39.682Z,24.13
2023-03-20T09:52:28.787Z,23.33
2023-03-20T09:54:58.244Z,32.45
2023-03-20T09:57:41.949Z,30.23
2023-03-20T10:00:16.412Z,37.10
2023-03-20T10:02:52.627Z,36.67
2023-03-20T10:05:31.341Z,38.30
2023-03-20T10:08:07.088Z,37.05
2023-03-20T10:10:46.724Z,39.72
2023-03-20T10:13:37.538Z,40.42
2023-03-20T10:16:32.779Z,35.88
2023-03-20T10:19:05.581Z,36.35
2023-03-20T10:21:39.530Z,35.83
2023-03-20T10:24:19.487Z,32.65
2023-03-20T10:26:51.018Z,32.72
2023-03-20T10:29:55.302Z,32.50
2023-03-20T10:32:33.278Z,31.25
2023-03-20T10:35:21.383Z,28.23
2023-03-20T10:38:09.890Z,28.23
2023-03-20T10:40:39.478Z,28.70
2023-03-20T10:43:19.112Z,27.65
2023-03-20T10:46:04.819Z,28.20
2023-03-20T10:48:36.981Z,26.05
2023-03-20T10:51:04.664Z,24.08
2023-03-20T10:53:31.876Z,27.27
2023-03-20T10:56:11.793Z,26.23
2023-03-20T10:58:41.062Z,27.35
2023-03-20T11:01:08.112Z,28.55
2023-03-20T11:03:38.967Z,26.17
2023-03-20T11:06:12.091Z,25.52
2023-03-20T11:08:43.388Z,23.83
2023-03-20T11:11:10.294Z,22.97
2023-03-20T11:13:41.704Z,25.33
2023-03-20T11:16:33.093Z,22.77
2023-03-20T11:19:07.078Z,24.13
2023-03-20T11:21:36.180Z,24.30
2023-03-20T11:24:04.066Z,24.98
2023-03-20T11:26:39.293Z,25.70
2023-03-20T11:29:08.193Z,24.70
2023-03-20T11:31:41.038Z,25.63
2023-03-20T11:34:07.628Z,29.40
2023-03-20T11:36:36.721Z,26.33
2023-03-20T11:39:06.394Z,27.05
2023-03-20T11:41:33.206Z,23.13
2023-03-20T11:43:59.735Z,27.52
2023-03-20T11:46:26.981Z,29.33
2023-03-20T11:49:06.579Z,31.58
2023-03-20T11:51:35.291Z,31.83
2023-03-20T11:54:06.029Z,29.30
2023-03-20T11:56:34.261Z,29.98
2023-03-20T11:59:14.775Z,32.25
2023-03-20T12:01:48.928Z,28.80
2023-03-20T12:04:42.055Z,31.23
2023-03-20T12:07:13.285Z,32.63
2023-03-20T12:09:47.854Z,34.03
2023-03-20T12:12:23.314Z,35.08
2023-03-20T12:15:12.957Z,30.50
2023-03-20T12:17:58.300Z,28.58
2023-03-20T12:20:46.136Z,32.63
2023-03-20T12:23:15.270Z,31.98
2023-03-20T12:26:04.133Z,31.67
2023-03-20T12:28:38.581Z,33.85
2023-03-20T12:31:25.425Z,33.45
2023-03-20T12:33:57.257Z,36.42
2023-03-20T12:36:36.013Z,34.42
2023-03-20T12:39:06.527Z,35.72
2023-03-20T12:41:40.265Z,35.97
2023-03-20T12:44:22.118Z,38.78
2023-03-20T12:47:18.515Z,37.63
2023-03-20T12:50:00.648Z,40.05
2023-03-20T12:52:46.532Z,39.45
2023-03-20T12:55:38.965Z,38.75
2023-03-20T12:58:43.592Z,39.75
2023-03-20T13:01:19.458Z,39.38
2023-03-20T13:04:10.943Z,37.80
2023-03-20T13:06:43.531Z,42.15
2023-03-20T13:09:28.139Z,40.42
2023-03-20T13:12:10.770Z,41.53
2023-03-20T13:14:37.244Z,39.60
2023-03-20T13:17:42.268Z,40.47
2023-03-20T13:20:37.107Z,41.03
2023-03-20T13:23:25.572Z,40.50
2023-03-20T13:26:04.157Z,37.83
2023-03-20T13:28:42.045Z,39.03
2023-03-20T13:31:30.901Z,40.80
2023-03-20T13:34:12.821Z,34.33
2023-03-20T13:36:45.255Z,37.30
2023-03-20T13:39:18.426Z,37.15
2023-03-20T13:41:46.945Z,38.13
2023-03-20T13:44:15.216Z,38.78
2023-03-20T13:46:46.688Z,37.90
2023-03-20T13:49:31.192Z,39.83
2023-03-20T13:52:29.345Z,37.92
2023-03-20T13:55:11.509Z,44.08
2023-03-20T13:58:17.276Z,39.40
2023-03-20T14:01:29.593Z,40.70
2023-03-20T14:03:56.625Z,39.17
2023-03-20T14:06:23.347Z,36.72
2023-03-20T14:08:54.004Z,36.05
2023-03-20T14:11:20.851Z,42.40
2023-03-20T14:13:59.404Z,39.95
2023-03-20T14:16:27.959Z,39.05
2023-03-20T14:19:19.161Z,37.35
2023-03-20T14:21:52.210Z,40.28
2023-03-20T14:24:20.383Z,38.63
2023-03-20T14:26:55.766Z,38.80
2023-03-20T14:29:33.736Z,41.90
2023-03-20T14:32:12.374Z,44.80
2023-03-20T14:34:49.982Z,45.58
2023-03-20T14:37:35.486Z,47.67
2023-03-20T14:40:11.404Z,51.53
2023-03-20T14:43:10.610Z,48.95
2023-03-20T14:45:45.355Z,52.45
2023-03-20T14:48:41.656Z,58.65
2023-03-20T14:51:37.206Z,63.17
2023-03-20T14:54:22.308Z,59.70
2023-03-20T14:56:50.526Z,65.53
2023-03-20T14:59:18.597Z,62.50
2023-03-20T15:01:48.254Z,70.18
2023-03-20T15:04:23.755Z,70.63
2023-03-20T15:07:08.584Z,70.07
2023-03-20T15:09:37.637Z,76.57
2023-03-20T15:12:04.601Z,71.40
2023-03-20T15:14:42.618Z,77.78
2023-03-20T15:17:36.971Z,87.35
2023-03-20T15:20:10.969Z,78.13
2023-03-20T15:22:48.035Z,81.00
2023-03-20T15:25:23.578Z,81.40
2023-03-20T15:27:51.875Z,89.07
2023-03-20T15:30:20.866Z,84.93
2023-03-20T15:32:49.735Z,87.27
2023-03-20T15:35:21.309Z,87.30
2023-03-20T15:37:49.447Z,83.50
2023-03-20T15:40:32.320Z,82.23
2023-03-20T15:43:23.025Z,90.85
2023-03-20T15:45:50.804Z,91.90
2023-03-20T15:48:19.581Z,94.07
2023-03-20T15:50:49.571Z,92.75
2023-03-20T15:53:21.322Z,98.90
2023-03-20T15:55:56.172Z,92.20
2023-03-20T15:58:25.797Z,90.70
2023-03-20T16:00:52.346Z,98.63
2023-03-20T16:03:21.198Z,98.03
2023-03-20T16:05:49.789Z,96.73
2023-03-20T16:08:27.080Z,98.00
2023-03-20T16:11:17.192Z,106.40
2023-03-20T16:13:48.159Z,110.77
2023-03-20T16:16:17.279Z,104.00
2023-03-20T16:18:46.490Z,102.63
2023-03-20T16:21:19.071Z,109.47
2023-03-20T16:23:48.080Z,102.03
2023-03-20T16:26:17.562Z,100.40
2023-03-20T16:28:55.462Z,99.63
2023-03-20T16:31:26.275Z,103.50
2023-03-20T16:33:52.994Z,107.17
2023-03-20T16:36:29.584Z,109.43
2023-03-20T16:39:06.219Z,105.73
2023-03-20T16:41:34.880Z,112.37
2023-03-20T16:44:28.824Z,99.30
2023-03-20T16:47:01.415Z,111.20
2023-03-20T16:49:34.501Z,102.27
2023-03-20T16:52:04.346Z,103.63
2023-03-20T16:54:34.499Z,106.23
2023-03-20T16:57:04.021Z,107.13
2023-03-20T16:59:30.651Z,103.37
2023-03-20T17:02:01.634Z,111.87
2023-03-20T17:04:39.285Z,111.22
2023-03-20T17:07:10.271Z,103.13
2023-03-20T17:09:36.747Z,96.03
2023-03-20T17:12:18.232Z,99.53
2023-03-20T17:14:47.903Z,77.85
2023-03-20T17:17:19.322Z,80.47
2023-03-20T17:19:46.991Z,73.87
2023-03-20T17:22:15.645Z,68.22
2023-03-20T17:24:42.236Z,78.07
2023-03-20T17:27:11.694Z,82.05
2023-03-20T17:29:39.570Z,86.23
2023-03-20T17:32:14.496Z,77.87
2023-03-20T17:34:41.507Z,82.00
2023-03-20T17:37:12.647Z,86.87
2023-03-20T17:39:39.111Z,83.70
2023-03-20T17:42:19.912Z,82.63
2023-03-20T17:44:48.098Z,79.13
2023-03-20T17:47:20.147Z,77.97
2023-03-20T17:49:46.999Z,88.10
2023-03-20T17:52:18.206Z,79.40
2023-03-20T17:54:45.381Z,80.63
2023-03-20T17:57:26.539Z,87.07
2023-03-20T17:59:53.031Z,79.33
2023-03-20T18:02:19.671Z,77.23
2023-03-20T18:04:46.883Z,75.13
2023-03-20T18:07:14.063Z,68.53
2023-03-20T18:09:42.768Z,60.07
2023-03-20T18:12:15.658Z,60.27
2023-03-20T18:14:43.374Z,62.97
2023-03-20T18:17:14.280Z,76.60
2023-03-20T18:19:41.343Z,84.50
2023-03-20T18:22:08.530Z,80.53
2023-03-20T18:24:36.012Z,67.80
2023-03-20T18:27:03.042Z,81.03
2023-03-20T18:29:29.820Z,79.00
2023-03-20T18:31:56.462Z,63.60
2023-03-20T18:34:23.375Z,61.13
2023-03-20T18:36:50.034Z,60.03
2023-03-20T18:39:24.420Z,56.70
2023-03-20T18:41:51.403Z,50.25
2023-03-20T18:44:18.186Z,45.57
2023-03-20T18:46:44.968Z,46.30
2023-03-20T18:49:16.609Z,41.60
2023-03-20T18:51:44.249Z,48.80
2023-03-20T18:54:11.574Z,44.57
2023-03-20T18:56:38.322Z,44.40
2023-03-20T18:59:07.832Z,37.77
2023-03-20T19:01:35.369Z,36.30
2023-03-20T19:04:02.162Z,33.70
2023-03-20T19:06:30.149Z,32.23
2023-03-20T19:08:57.127Z,30.77
2023-03-20T19:11:23.828Z,31.93
2023-03-20T19:13:53.935Z,29.60
2023-03-20T19:16:28.435Z,30.37
2023-03-20T19:18:58.863Z,29.53
2023-03-20T19:21:28.381Z,31.57
2023-03-20T19:23:56.970Z,32.50
2023-03-20T19:26:25.741Z,27.13
2023-03-20T19:28:53.526Z,30.13
2023-03-20T19:31:20.343Z,30.37
2023-03-20T19:33:46.966Z,29.23
2023-03-20T19:36:24.451Z,30.00
2023-03-20T19:38:52.379Z,33.10
2023-03-20T19:41:20.190Z,31.10
2023-03-20T19:43:53.151Z,34.20
2023-03-20T19:46:38.708Z,34.37
2023-03-20T19:49:17.797Z,33.03
2023-03-20T19:51:45.257Z,29.63
2023-03-20T19:54:11.683Z,31.87
2023-03-20T19:56:38.247Z,32.43
2023-03-20T19:59:05.943Z,29.70
2023-03-20T20:01:32.491Z,30.43
2023-03-20T20:03:59.068Z,31.03
2023-03-20T20:06:31.035Z,29.93
2023-03-20T20:08:59.436Z,30.57
2023-03-20T20:11:26.323Z,29.53
2023-03-20T20:14:10.028Z,33.03
2023-03-20T20:16:39.675Z,32.20
2023-03-20T20:19:06.913Z,30.53
2023-03-20T20:24:20.229Z,34.53
2023-03-20T20:27:03.189Z,34.57
2023-03-20T20:29:37.459Z,36.17
2023-03-20T20:32:04.425Z,33.53
2023-03-20T20:38:09.126Z,35.20
2023-03-20T20:40:06.064Z,38.70
2023-03-20T20:42:32.740Z,41.60
2023-03-20T20:44:59.349Z,44.70
2023-03-20T20:47:25.900Z,45.60
2023-03-20T20:49:52.426Z,43.80
2023-03-20T20:52:19.126Z,47.43
2023-03-20T20:54:45.654Z,46.43
2023-03-20T20:57:12.398Z,45.50
2023-03-20T20:59:40.379Z,43.97
2023-03-20T21:02:12.295Z,40.40
2023-03-20T21:04:40.278Z,45.63
2023-03-20T21:07:10.250Z,37.23
2023-03-20T21:09:37.668Z,42.37
2023-03-20T21:12:04.814Z,41.10
2023-03-20T21:14:31.428Z,40.53
2023-03-20T21:17:01.822Z,41.67
2023-03-20T21:19:49.709Z,40.50
2023-03-20T21:22:17.043Z,40.00
2023-03-20T21:24:43.868Z,43.30
2023-03-20T21:27:13.794Z,43.00
2023-03-20T21:29:41.493Z,40.27
2023-03-20T21:32:10.898Z,41.83
2023-03-20T21:34:38.461Z,42.97
2023-03-20T21:38:04.640Z,46.00
2023-03-20T21:39:52.657Z,43.30
2023-03-20T21:42:19.307Z,43.03
2023-03-20T21:45:34.484Z,41.90
2023-03-20T21:48:24.564Z,38.47
2023-03-20T21:53:49.580Z,38.83
2023-03-20T21:56:41.720Z,38.60
2023-03-20T21:59:27.065Z,37.93
2023-03-20T22:01:58.740Z,41.00
2023-03-20T22:13:21.707Z,38.83
2023-03-20T22:16:01.980Z,40.80
2023-03-20T22:24:45.200Z,40.40
2023-03-20T22:30:02.619Z,42.83
2023-03-20T22:32:52.086Z,42.70
2023-03-20T22:35:41.776Z,40.97
2023-03-20T22:41:18.303Z,46.37
2023-03-20T22:46:36.082Z,46.43
2023-03-20T22:48:48.748Z,45.80
2023-03-20T22:51:16.500Z,49.07
2023-03-20T22:53:44.836Z,45.00
2023-03-20T22:56:12.868Z,45.23
2023-03-20T22:58:39.493Z,46.37
2023-03-20T23:01:08.276Z,45.40
2023-03-20T23:03:41.526Z,45.80
2023-03-20T23:06:20.174Z,44.00
2023-03-20T23:08:53.942Z,45.63
2023-03-20T23:11:23.322Z,43.73
2023-03-20T23:13:50.134Z,45.73
2023-03-20T23:16:16.866Z,45.07
2023-03-20T23:18:44.417Z,47.00
2023-03-20T23:21:13.160Z,45.07
2023-03-20T23:23:39.689Z,48.63
2023-03-20T23:26:10.587Z,49.27
2023-03-20T23:28:37.911Z,45.13
2023-03-20T23:31:10.386Z,44.90
2023-03-20T23:33:38.814Z,47.43
2023-03-20T23:36:18.599Z,43.53
2023-03-20T23:38:48.313Z,46.37
2023-03-20T23:41:15.765Z,44.97
2023-03-20T23:43:42.858Z,47.50
2023-03-20T23:46:09.390Z,46.70
2023-03-20T23:48:36.439Z,47.20
2023-03-20T23:51:03.594Z,42.28
2023-03-20T23:53:30.260Z,49.60
2023-03-20T23:55:57.274Z,49.47
2023-03-20T23:58:25.584Z,45.67
